Time;durP1;ratioP1;P1;durP2;ratioP2;P2;SDS_P1;SDS_P2;PMS_P1;PMS_P2;Temp;Humidity;BMP_temperature;BMP_pressure;BME280_temperature;BME280_humidity;BME280_pressure;Samples;Min_cycle;Max_cycle;Signal;HPM_P1;HPM_P2
2024/02/15 00:00:16;;;;;;;6.50;5.60;;;;;;;8.18;100.00;98939.41;5005532;28;20067;-86
2024/02/15 00:02:44;;;;;;;6.90;6.07;;;;;;;8.51;100.00;98980.59;5025931;28;20091;-86
2024/02/15 00:05:10;;;;;;;6.72;5.22;;;;;;;8.30;100.00;98944.72;5021435;28;20034;-86
2024/02/15 00:07:36;;;;;;;9.48;5.90;;;;;;;8.12;100.00;98955.47;4991399;28;20125;-86
2024/02/15 00:10:03;;;;;;;6.18;5.28;;;;;;;8.44;100.00;98994.00;5023928;28;20116;-86
2024/02/15 00:12:29;;;;;;;6.70;6.00;;;;;;;8.34;100.00;98987.63;5025481;28;20029;-86
2024/02/15 00:14:58;;;;;;;7.78;6.68;;;;;;;8.10;100.00;98960.19;5023850;28;20104;-86
2024/02/15 00:17:29;;;;;;;8.18;7.25;;;;;;;8.36;100.00;98993.53;5011049;28;20032;-86
2024/02/15 00:19:54;;;;;;;9.98;8.15;;;;;;;8.39;100.00;98999.19;5026911;28;20369;-86
2024/02/15 00:22:21;;;;;;;10.57;8.60;;;;;;;7.88;100.00;98940.50;5021930;28;20082;-86
2024/02/15 00:24:48;;;;;;;9.25;7.40;;;;;;;8.15;100.00;98994.84;5023526;28;20033;-86
2024/02/15 00:27:15;;;;;;;10.70;7.90;;;;;;;8.02;100.00;98979.94;5020687;28;20028;-86
2024/02/15 00:29:40;;;;;;;10.13;7.25;;;;;;;7.61;100.00;98918.03;5023091;28;20037;-87
2024/02/15 00:32:06;;;;;;;9.10;6.88;;;;;;;8.24;100.00;98970.38;4993914;28;20025;-86
2024/02/15 00:34:32;;;;;;;9.35;6.88;;;;;;;7.97;100.00;98947.13;5027311;28;20042;-86
2024/02/15 00:36:57;;;;;;;8.48;6.65;;;;;;;8.12;100.00;98950.13;5008291;28;20112;-86
2024/02/15 00:39:22;;;;;;;9.65;7.03;;;;;;;8.19;100.00;98941.00;5023819;28;20030;-86
2024/02/15 00:41:48;;;;;;;6.07;5.13;;;;;;;8.56;100.00;98973.50;5007542;28;20065;-86
2024/02/15 00:44:13;;;;;;;5.63;4.88;;;;;;;8.24;98.47;98913.72;5005960;28;20035;-86
2024/02/15 00:46:41;;;;;;;5.68;5.00;;;;;;;8.54;99.13;98970.28;5007694;28;20026;-86
2024/02/15 00:49:06;;;;;;;7.32;4.80;;;;;;;8.40;99.99;98944.16;5009749;28;20508;-86
2024/02/15 00:51:36;;;;;;;5.70;4.65;;;;;;;8.56;99.53;98970.84;4994396;28;20029;-87
2024/02/15 00:54:02;;;;;;;7.55;5.38;;;;;;;8.74;99.73;98989.38;5024841;28;20458;-86
2024/02/15 00:56:29;;;;;;;7.25;5.85;;;;;;;8.73;99.86;98981.63;5010370;28;20030;-87
2024/02/15 00:58:55;;;;;;;6.40;5.10;;;;;;;8.71;99.43;98989.03;5026302;28;20100;-86
2024/02/15 01:01:20;;;;;;;6.10;5.30;;;;;;;8.75;99.95;98988.34;5024951;28;20033;-86
2024/02/15 01:03:46;;;;;;;10.85;6.55;;;;;;;8.42;100.00;98958.84;5026532;28;20033;-86
2024/02/15 01:06:11;;;;;;;7.80;7.00;;;;;;;8.67;100.00;98995.84;4992817;28;20404;-86
2024/02/15 01:08:37;;;;;;;6.90;6.07;;;;;;;8.76;100.00;99000.56;4994202;28;20120;-86
2024/02/15 01:11:02;;;;;;;8.30;6.38;;;;;;;8.62;100.00;99004.53;4990630;28;20065;-86
2024/02/15 01:13:28;;;;;;;7.07;5.88;;;;;;;8.37;100.00;98969.34;4999527;28;20026;-86
2024/02/15 01:15:53;;;;;;;11.57;8.27;;;;;;;8.71;100.00;98989.03;5019812;28;20030;-86
2024/02/15 01:18:18;;;;;;;7.68;5.45;;;;;;;8.60;100.00;98998.63;4992886;28;20535;-86
2024/02/15 01:20:44;;;;;;;6.90;6.18;;;;;;;8.25;100.00;98944.59;5024135;28;20026;-86
2024/02/15 01:23:10;;;;;;;8.73;6.30;;;;;;;8.71;100.00;98994.34;4994134;28;20029;-86
2024/02/15 01:25:35;;;;;;;10.98;6.93;;;;;;;8.69;100.00;98999.09;5009319;28;20489;-87
2024/02/15 01:28:02;;;;;;;7.93;5.88;;;;;;;8.47;100.00;99000.72;5023786;28;20026;-86
2024/02/15 01:30:28;;;;;;;10.18;6.07;;;;;;;8.53;100.00;99002.44;5011716;28;20022;-87
2024/02/15 01:32:54;;;;;;;6.75;5.50;;;;;;;8.61;100.00;98996.75;5028534;28;20409;-87
2024/02/15 01:35:19;;;;;;;7.95;6.88;;;;;;;8.58;100.00;98990.09;5025148;28;20026;-87
2024/02/15 01:37:45;;;;;;;6.53;5.82;;;;;;;8.40;100.00;98928.19;5020797;28;20042;-86
2024/02/15 01:40:12;;;;;;;6.70;6.00;;;;;;;8.24;100.00;98929.69;5010227;28;20116;-86
2024/02/15 01:42:38;;;;;;;7.07;5.75;;;;;;;8.80;100.00;98992.97;4993075;28;20037;-87
2024/02/15 01:45:04;;;;;;;7.25;5.88;;;;;;;8.15;100.00;98901.81;5027698;28;20025;-86
2024/02/15 01:47:31;;;;;;;7.40;5.88;;;;;;;8.65;100.00;98990.75;5007145;28;20026;-86
2024/02/15 01:49:56;;;;;;;9.32;5.38;;;;;;;8.58;100.00;98976.78;5021155;28;20485;-86
2024/02/15 01:52:22;;;;;;;7.25;5.78;;;;;;;8.59;100.00;98997.00;5021299;28;20079;-87
2024/02/15 01:54:48;;;;;;;7.82;5.60;;;;;;;8.27;100.00;98963.81;5007892;28;20171;-87
2024/02/15 01:57:15;;;;;;;7.35;4.93;;;;;;;8.28;100.00;98944.16;5004461;28;20026;-87
2024/02/15 01:59:41;;;;;;;6.57;5.30;;;;;;;8.61;100.00;98983.47;4990362;28;20497;-87
2024/02/15 02:02:11;;;;;;;6.05;5.22;;;;;;;8.54;100.00;98990.78;5011234;28;20091;-86
2024/02/15 02:04:38;;;;;;;7.68;5.28;;;;;;;8.55;100.00;98990.53;4996033;28;20045;-87
2024/02/15 02:07:03;;;;;;;7.85;6.32;;;;;;;8.55;100.00;98987.88;4988441;28;21529;-87
2024/02/15 02:09:29;;;;;;;9.32;5.80;;;;;;;8.58;100.00;98991.94;4989600;28;20033;-86
2024/02/15 02:11:55;;;;;;;12.88;5.68;;;;;;;8.57;100.00;98975.16;4998857;28;20056;-86
2024/02/15 02:14:20;;;;;;;9.52;5.80;;;;;;;8.52;100.00;98963.59;5019341;28;20370;-87
2024/02/15 02:16:46;;;;;;;7.72;5.50;;;;;;;8.42;100.00;98947.41;4986065;28;20167;-87
2024/02/15 02:19:11;;;;;;;6.45;5.53;;;;;;;8.65;100.00;98985.44;4989482;28;20036;-86
2024/02/15 02:21:39;;;;;;;5.80;5.18;;;;;;;8.50;100.00;98963.81;5025161;28;20029;-86
2024/02/15 02:24:12;;;;;;;7.55;5.53;;;;;;;8.30;100.00;98936.75;5009062;28;20030;-87
2024/02/15 02:26:37;;;;;;;10.65;7.05;;;;;;;8.43;100.00;98954.34;5026438;28;20469;-86
2024/02/15 02:29:04;;;;;;;8.95;5.53;;;;;;;8.28;100.00;98930.84;5026778;28;20044;-86
2024/02/15 02:31:34;;;;;;;9.18;6.43;;;;;;;8.69;100.00;98975.94;5011164;28;20037;-86
2024/02/15 02:33:59;;;;;;;8.27;6.43;;;;;;;8.49;100.00;98959.53;5028294;28;20048;-86
2024/02/15 02:36:26;;;;;;;6.75;5.70;;;;;;;8.44;100.00;98930.16;5012834;28;20347;-86
2024/02/15 02:38:52;;;;;;;7.47;6.13;;;;;;;8.71;100.00;98971.22;5008154;28;20036;-86
2024/02/15 02:41:19;;;;;;;9.45;5.53;;;;;;;8.15;100.00;98872.56;5023346;28;20536;-86
2024/02/15 02:43:45;;;;;;;8.02;6.05;;;;;;;8.26;100.00;98909.81;5028265;28;20405;-87
2024/02/15 02:46:11;;;;;;;7.30;5.82;;;;;;;8.70;100.00;98972.25;5031656;28;20025;-86
2024/02/15 02:48:40;;;;;;;6.55;5.85;;;;;;;8.73;100.00;98966.47;5016314;28;20044;-86
2024/02/15 02:51:06;;;;;;;8.10;5.72;;;;;;;8.50;100.00;98923.09;5024401;28;20030;-87
2024/02/15 02:53:32;;;;;;;8.68;5.78;;;;;;;8.34;100.00;98908.69;5024947;28;20396;-87
2024/02/15 02:55:57;;;;;;;8.90;5.47;;;;;;;8.59;100.00;98953.63;5006172;28;20031;-86
2024/02/15 02:58:23;;;;;;;8.10;6.10;;;;;;;8.03;100.00;98877.09;5027361;28;20042;-86
2024/02/15 03:00:49;;;;;;;6.00;5.10;;;;;;;8.75;100.00;98969.69;5027095;28;20032;-86
2024/02/15 03:03:15;;;;;;;7.70;5.55;;;;;;;8.67;100.00;98972.69;5027849;28;20076;-86
2024/02/15 03:05:41;;;;;;;7.63;5.75;;;;;;;8.66;100.00;98968.44;5026829;28;20033;-86
2024/02/15 03:08:08;;;;;;;6.85;5.50;;;;;;;8.40;100.00;98931.69;4995577;28;20041;-86
2024/02/15 03:10:34;;;;;;;7.70;5.85;;;;;;;8.23;100.00;98904.13;5031323;28;20392;-87
2024/02/15 03:12:59;;;;;;;8.20;6.30;;;;;;;8.51;100.00;98959.31;5029262;28;20037;-86
2024/02/15 03:15:25;;;;;;;5.97;5.38;;;;;;;8.66;100.00;98960.47;5013088;28;20029;-86
2024/02/15 03:17:51;;;;;;;9.10;6.05;;;;;;;8.75;100.00;98972.38;5031805;28;20089;-87
2024/02/15 03:20:23;;;;;;;6.70;5.38;;;;;;;8.73;100.00;98968.31;5022517;28;20029;-86
2024/02/15 03:22:57;;;;;;;8.57;6.10;;;;;;;8.65;100.00;98950.06;4992473;28;20033;-87
2024/02/15 03:25:23;;;;;;;10.82;5.80;;;;;;;8.45;100.00;98938.97;5004254;28;20037;-87
2024/02/15 03:27:53;;;;;;;7.10;5.68;;;;;;;8.68;100.00;98961.03;5029029;28;20022;-86
2024/02/15 03:30:19;;;;;;;14.18;6.10;;;;;;;8.63;100.00;98962.75;5025283;28;20037;-87
2024/02/15 03:32:48;;;;;;;6.35;5.22;;;;;;;8.31;100.00;98906.47;5009000;28;20037;-86
2024/02/15 03:35:14;;;;;;;6.53;5.70;;;;;;;8.69;100.00;98964.50;5025177;28;20017;-86
2024/02/15 03:37:41;;;;;;;6.90;5.78;;;;;;;8.59;100.00;98983.72;5029702;28;20021;-87
2024/02/15 03:40:08;;;;;;;7.93;6.50;;;;;;;8.47;100.00;98939.53;5005620;28;20029;-86
2024/02/15 03:42:36;;;;;;;7.22;5.85;;;;;;;7.94;100.00;98897.88;5027691;28;20025;-87
2024/02/15 03:45:08;;;;;;;9.13;5.88;;;;;;;8.56;100.00;98984.16;5006251;28;20025;-87
2024/02/15 03:47:35;;;;;;;6.93;5.15;;;;;;;8.28;100.00;98933.50;5026448;28;20036;-87
2024/02/15 03:50:02;;;;;;;10.18;6.72;;;;;;;8.42;100.00;98974.00;5027963;28;20489;-86
2024/02/15 03:52:29;;;;;;;8.90;6.03;;;;;;;8.51;100.00;98984.06;5026080;28;20031;-86
2024/02/15 03:54:57;;;;;;;9.73;7.20;;;;;;;8.31;100.00;98957.00;4998103;28;20372;-87
2024/02/15 03:57:22;;;;;;;10.15;6.80;;;;;;;8.49;100.00;98986.16;5024518;28;20032;-86
2024/02/15 03:59:52;;;;;;;7.28;5.65;;;;;;;8.53;100.00;98984.63;5008347;28;20041;-87
2024/02/15 04:02:23;;;;;;;7.97;5.70;;;;;;;8.47;100.00;98984.75;5006419;28;20112;-86
2024/02/15 04:04:52;;;;;;;9.50;6.32;;;;;;;8.56;100.00;98970.84;5026852;28;20041;-86
2024/02/15 04:07:19;;;;;;;14.95;6.85;;;;;;;8.27;100.00;98961.16;5026315;28;20022;-87
2024/02/15 04:09:45;;;;;;;6.97;5.88;;;;;;;8.23;100.00;98920.88;5009564;28;20401;-86
2024/02/15 04:12:11;;;;;;;7.40;5.95;;;;;;;8.59;100.00;98990.88;5010227;28;20091;-87
2024/02/15 04:14:38;;;;;;;7.65;6.03;;;;;;;8.44;100.00;98979.88;5025247;28;20458;-86
2024/02/15 04:17:04;;;;;;;8.02;5.90;;;;;;;8.55;100.00;98985.22;5008479;28;20112;-86
2024/02/15 04:19:30;;;;;;;8.63;6.38;;;;;;;8.49;100.00;98985.34;5026801;28;20111;-86
2024/02/15 04:21:56;;;;;;;7.45;5.80;;;;;;;8.50;100.00;98963.81;5030390;28;20037;-86
2024/02/15 04:24:22;;;;;;;8.80;6.13;;;;;;;8.29;100.00;98965.22;5008061;28;20063;-86
2024/02/15 04:26:48;;;;;;;10.25;7.38;;;;;;;8.18;100.00;98941.25;5021783;28;20045;-87
2024/02/15 04:29:19;;;;;;;10.13;6.28;;;;;;;8.55;100.00;98993.19;5029295;28;20049;-86
2024/02/15 04:31:45;;;;;;;7.53;5.80;;;;;;;8.43;100.00;98971.09;5026418;28;20040;-86
2024/02/15 04:34:11;;;;;;;10.25;6.25;;;;;;;8.53;100.00;98981.16;5025901;28;20021;-86
2024/02/15 04:36:37;;;;;;;9.63;7.68;;;;;;;8.48;100.00;98995.16;5012670;28;20052;-88
2024/02/15 04:39:02;;;;;;;11.52;7.13;;;;;;;8.00;100.00;98912.91;5009547;28;20036;-88
2024/02/15 04:41:28;;;;;;;13.70;8.20;;;;;;;8.01;100.00;98913.72;5023490;28;20025;-88
2024/02/15 04:43:54;;;;;;;8.18;6.80;;;;;;;8.50;100.00;98971.78;5023708;28;20030;-87
2024/02/15 04:46:21;;;;;;;14.70;7.22;;;;;;;8.75;100.00;98991.00;5005871;28;20038;-87
2024/02/15 04:48:50;;;;;;;16.58;7.22;;;;;;;8.69;100.00;98989.25;5000184;28;20037;-88
2024/02/15 04:51:19;;;;;;;9.43;6.57;;;;;;;8.59;100.00;98981.03;5021403;28;20604;-88
2024/02/15 04:53:46;;;;;;;9.68;7.28;;;;;;;8.71;100.00;98992.50;5018786;28;20120;-88
2024/02/15 04:56:16;;;;;;;11.90;8.00;;;;;;;8.64;100.00;98997.13;5021132;28;20028;-88
2024/02/15 04:58:47;;;;;;;12.35;7.20;;;;;;;8.58;100.00;98999.91;5017046;28;20120;-88
2024/02/15 05:01:13;;;;;;;10.07;6.30;;;;;;;8.57;100.00;98985.78;5019145;28;20484;-88
2024/02/15 05:03:39;;;;;;;8.52;7.10;;;;;;;8.61;100.00;98988.78;5020740;28;20017;-88
2024/02/15 05:06:06;;;;;;;11.60;7.13;;;;;;;8.72;100.00;98996.78;4988296;28;20042;-88
2024/02/15 05:08:31;;;;;;;8.50;6.93;;;;;;;8.61;100.00;98983.47;5000870;28;20025;-88
2024/02/15 05:10:58;;;;;;;8.70;6.90;;;;;;;8.72;100.00;98993.28;4988416;28;20037;-87
2024/02/15 05:13:26;;;;;;;10.50;6.93;;;;;;;8.63;100.00;98974.22;4999654;28;20461;-88
2024/02/15 05:15:51;;;;;;;10.77;7.38;;;;;;;8.93;100.00;99006.81;5005678;28;20037;-88
2024/02/15 05:18:18;;;;;;;8.57;6.50;;;;;;;8.72;100.00;99001.28;5004168;28;20041;-88
2024/02/15 05:20:43;;;;;;;9.15;5.80;;;;;;;8.46;100.00;98964.50;5006599;28;20030;-88
2024/02/15 05:23:09;;;;;;;11.75;7.43;;;;;;;8.73;100.00;98986.94;5007559;28;20037;-87
2024/02/15 05:25:35;;;;;;;11.45;6.70;;;;;;;8.77;100.00;98988.91;4989504;28;20034;-88
2024/02/15 05:28:01;;;;;;;9.07;6.90;;;;;;;8.36;100.00;98917.22;5020819;28;20083;-88
2024/02/15 05:30:26;;;;;;;12.52;6.95;;;;;;;8.81;100.00;98995.38;5024261;28;20120;-88
2024/02/15 05:32:52;;;;;;;9.00;6.22;;;;;;;8.85;100.00;99007.16;5006511;28;20030;-88
2024/02/15 05:35:18;;;;;;;10.82;7.88;;;;;;;8.70;100.00;98992.72;5030987;28;20025;-88
2024/02/15 05:37:43;;;;;;;11.98;8.60;;;;;;;8.67;100.00;98999.31;5026584;28;20038;-88
2024/02/15 05:40:14;;;;;;;13.10;7.28;;;;;;;8.79;100.00;98992.16;5023315;28;20039;-88
2024/02/15 05:42:45;;;;;;;9.73;6.88;;;;;;;8.66;100.00;98971.09;4996422;28;20057;-88
2024/02/15 05:45:26;;;;;;;9.30;6.95;;;;;;;8.75;100.00;98996.31;5027367;28;20022;-87
2024/02/15 05:47:54;;;;;;;9.80;8.02;;;;;;;8.60;100.00;98989.84;5030274;28;20029;-87
2024/02/15 05:50:21;;;;;;;9.95;6.57;;;;;;;8.58;100.00;98955.50;5028683;28;20091;-87
2024/02/15 05:52:47;;;;;;;11.27;7.28;;;;;;;8.75;100.00;98975.03;5029835;28;20397;-87
2024/02/15 05:55:16;;;;;;;11.35;7.40;;;;;;;8.61;100.00;98963.00;5030460;28;20032;-87
2024/02/15 05:57:43;;;;;;;13.38;7.65;;;;;;;8.76;100.00;98976.63;5026568;28;20048;-87
2024/02/15 06:00:09;;;;;;;10.05;6.85;;;;;;;8.65;100.00;98955.38;5026058;28;20025;-87
2024/02/15 06:02:34;;;;;;;9.88;7.45;;;;;;;8.58;100.00;98976.78;5028838;28;20034;-87
2024/02/15 06:05:03;;;;;;;11.52;7.65;;;;;;;8.58;100.00;98967.97;5022542;28;20125;-88
2024/02/15 06:07:29;;;;;;;10.95;7.25;;;;;;;8.67;100.00;98982.56;5027619;28;20429;-87
2024/02/15 06:09:54;;;;;;;12.07;7.75;;;;;;;8.36;100.00;98935.84;5034311;28;20103;-87
2024/02/15 06:12:20;;;;;;;10.07;7.55;;;;;;;8.43;100.00;98973.75;5010113;28;20056;-87
2024/02/15 06:14:46;;;;;;;12.02;9.20;;;;;;;8.40;100.00;98992.84;5012415;28;20025;-87
2024/02/15 06:17:11;;;;;;;12.20;9.38;;;;;;;8.38;100.00;98972.84;5031310;28;20025;-88
2024/02/15 06:19:37;;;;;;;15.82;9.25;;;;;;;8.20;100.00;98947.94;5014714;28;20041;-88
2024/02/15 06:22:05;;;;;;;16.15;9.18;;;;;;;8.19;100.00;98970.25;5033258;28;20083;-87
2024/02/15 06:24:31;;;;;;;19.15;11.48;;;;;;;8.08;100.00;98941.00;5034194;28;20037;-87
2024/02/15 06:26:59;;;;;;;15.52;10.35;;;;;;;8.29;100.00;98980.34;5036303;28;20155;-88
2024/02/15 06:40:22;;;;;;;18.80;11.23;;;;;;;8.39;100.00;98983.22;5026241;28;20068;-87
2024/02/15 06:42:48;;;;;;;20.10;10.85;;;;;;;8.43;100.00;98995.03;5031259;28;20057;-88
2024/02/15 06:45:13;;;;;;;15.93;10.27;;;;;;;8.44;100.00;99001.16;5019542;28;20499;-88
2024/02/15 06:47:43;;;;;;;17.92;10.93;;;;;;;8.57;100.00;98983.13;5032629;28;20064;-88
2024/02/15 06:50:11;;;;;;;19.42;12.25;;;;;;;8.70;100.00;98982.06;5001250;28;20029;-87
2024/02/15 06:52:38;;;;;;;15.23;9.93;;;;;;;8.55;100.00;98990.53;4992974;28;20034;-88
2024/02/15 06:55:03;;;;;;;15.18;10.52;;;;;;;8.28;100.00;98926.34;5031015;28;20055;-87
2024/02/15 06:57:33;;;;;;;15.15;10.35;;;;;;;8.49;100.00;98975.50;4999313;28;20057;-87
2024/02/15 06:59:59;;;;;;;15.27;10.18;;;;;;;8.30;100.00;98923.44;5007021;28;20037;-87
2024/02/15 07:02:24;;;;;;;13.80;10.35;;;;;;;8.30;100.00;98932.25;5015285;28;20437;-87
2024/02/15 07:04:51;;;;;;;14.32;10.55;;;;;;;8.55;100.00;98981.75;4999159;28;20029;-88
2024/02/15 07:07:17;;;;;;;17.65;9.32;;;;;;;8.61;100.00;98978.97;4998956;28;20124;-87
2024/02/15 07:09:42;;;;;;;21.58;9.07;;;;;;;8.83;100.00;99009.25;5030313;28;20615;-88
2024/02/15 07:12:07;;;;;;;10.82;9.15;;;;;;;8.74;100.00;98994.69;4997953;28;20044;-87
2024/02/15 07:14:34;;;;;;;19.50;9.63;;;;;;;8.77;100.00;98988.09;5014913;28;20036;-88
2024/02/15 07:16:59;;;;;;;14.75;9.73;;;;;;;8.84;100.00;98989.59;4991296;28;20022;-87
2024/02/15 07:19:27;;;;;;;16.27;9.68;;;;;;;8.23;100.00;98912.13;5010908;28;20080;-87
2024/02/15 07:21:52;;;;;;;14.75;9.15;;;;;;;8.72;100.00;98980.81;5036357;28;20082;-88
2024/02/15 07:24:17;;;;;;;17.08;9.35;;;;;;;8.96;100.00;98998.38;5030499;28;20447;-88
2024/02/15 07:26:43;;;;;;;20.60;10.23;;;;;;;8.52;100.00;98929.81;5032363;28;20052;-88
2024/02/15 07:29:09;;;;;;;17.73;9.90;;;;;;;8.92;100.00;98999.06;4998874;28;20172;-87
2024/02/15 07:31:35;;;;;;;16.80;8.43;;;;;;;8.55;100.00;98931.19;5031473;28;20036;-88
2024/02/15 07:34:00;;;;;;;10.45;8.43;;;;;;;9.04;100.00;98981.22;5014932;28;20030;-88
2024/02/15 07:36:27;;;;;;;14.73;8.52;;;;;;;8.86;100.00;98970.72;5012464;28;20041;-88
2024/02/15 07:38:53;;;;;;;12.02;8.23;;;;;;;8.92;100.00;98961.78;4995961;28;20033;-88
2024/02/15 07:41:22;;;;;;;11.52;8.75;;;;;;;9.11;100.00;98973.13;5028658;28;20116;-88
2024/02/15 07:43:55;;;;;;;10.68;8.00;;;;;;;9.15;100.00;98987.56;5006522;28;20029;-87
2024/02/15 07:46:21;;;;;;;10.57;7.75;;;;;;;9.14;100.00;98983.28;5039277;28;20026;-88
2024/02/15 07:48:50;;;;;;;15.82;10.00;;;;;;;8.93;100.00;98974.84;5026860;28;20032;-88
2024/02/15 07:51:18;;;;;;;10.80;7.53;;;;;;;9.02;100.00;98956.69;5002537;28;20501;-88
2024/02/15 07:53:44;;;;;;;15.68;11.13;;;;;;;8.75;100.00;98910.34;5005520;28;20128;-88
2024/02/15 07:56:10;;;;;;;11.38;8.77;;;;;;;9.02;100.00;98968.13;5018212;28;20123;-87
2024/02/15 07:58:41;;;;;;;13.80;9.43;;;;;;;9.12;100.00;98967.53;5025044;28;20076;-88
2024/02/15 08:01:06;;;;;;;17.50;8.90;;;;;;;9.17;100.00;98977.50;5008025;28;20128;-88
2024/02/15 08:03:32;;;;;;;12.57;8.23;;;;;;;9.23;100.00;98979.19;5021723;28;20434;-87
2024/02/15 08:05:57;;;;;;;13.05;9.02;;;;;;;9.03;100.00;98945.00;5006444;28;20171;-88
2024/02/15 08:08:23;;;;;;;10.68;7.82;;;;;;;9.22;100.00;98966.94;4997291;28;20029;-88
2024/02/15 08:10:51;;;;;;;9.80;7.55;;;;;;;9.02;100.00;98956.69;5030370;28;20531;-88
2024/02/15 08:13:17;;;;;;;11.85;7.30;;;;;;;9.00;100.00;98932.94;5006619;28;20120;-88
2024/02/15 08:15:44;;;;;;;13.73;7.03;;;;;;;9.34;100.00;98978.34;5022691;28;20374;-87
2024/02/15 08:18:12;;;;;;;11.18;6.70;;;;;;;9.30;100.00;98963.91;5030531;28;20427;-87
2024/02/15 08:20:40;;;;;;;10.27;6.28;;;;;;;9.51;99.31;98964.03;5034234;28;20029;-87
2024/02/15 08:23:06;;;;;;;8.52;6.78;;;;;;;9.57;98.18;98962.25;5035777;28;20471;-88
2024/02/15 08:25:31;;;;;;;8.68;6.25;;;;;;;9.03;99.57;98897.88;5026709;28;20030;-88
2024/02/15 08:27:58;;;;;;;7.35;6.18;;;;;;;9.47;99.36;98957.56;4987913;28;20046;-88
2024/02/15 08:30:23;;;;;;;7.03;5.35;;;;;;;9.46;100.00;98955.13;5029004;28;20037;-87
2024/02/15 08:32:48;;;;;;;8.68;5.97;;;;;;;9.39;99.98;98935.84;5008611;28;20037;-87
2024/02/15 08:35:14;;;;;;;7.30;5.75;;;;;;;9.22;99.48;98903.03;4989970;28;20029;-87
2024/02/15 08:37:47;;;;;;;6.68;5.10;;;;;;;9.57;99.75;98948.94;5019631;28;20032;-86
2024/02/15 08:40:14;;;;;;;10.40;5.15;;;;;;;9.22;100.00;98913.69;5013054;28;20443;-86
2024/02/15 08:42:43;;;;;;;6.38;4.93;;;;;;;9.55;100.00;98954.53;4999892;28;20160;-87
2024/02/15 08:45:10;;;;;;;7.15;5.22;;;;;;;9.54;100.00;98962.75;5009821;28;20044;-86
2024/02/15 08:47:40;;;;;;;7.35;4.70;;;;;;;9.56;100.00;98976.66;4997660;28;20057;-86
2024/02/15 08:50:10;;;;;;;6.15;4.50;;;;;;;9.38;99.83;98968.84;5015224;28;20034;-86
2024/02/15 08:52:39;;;;;;;7.95;4.68;;;;;;;9.51;99.17;98971.22;5022929;28;20030;-87
2024/02/15 08:55:10;;;;;;;6.65;5.38;;;;;;;9.45;99.13;98962.34;4994737;28;20029;-86
2024/02/15 08:57:36;;;;;;;5.65;4.80;;;;;;;9.61;99.07;98995.41;5025014;28;20059;-86
2024/02/15 09:00:13;;;;;;;8.00;4.57;;;;;;;9.75;98.39;98994.06;5025146;28;20520;-86
2024/02/15 09:02:51;;;;;;;8.45;5.60;;;;;;;9.57;99.77;98979.06;5037387;28;20037;-87
2024/02/15 09:05:18;;;;;;;6.53;4.25;;;;;;;9.51;99.92;98988.03;5017904;28;20040;-86
2024/02/15 09:07:47;;;;;;;8.73;5.47;;;;;;;9.44;100.00;98987.34;5012274;28;20038;-87
2024/02/15 09:10:13;;;;;;;9.50;6.28;;;;;;;9.42;100.00;98981.44;5018573;28;20087;-86
2024/02/15 09:12:40;;;;;;;12.88;6.00;;;;;;;8.91;100.00;98896.31;5031429;28;20306;-87
2024/02/15 09:15:07;;;;;;;8.38;5.88;;;;;;;9.44;100.00;98976.69;5015579;28;20032;-86
2024/02/15 09:17:38;;;;;;;10.43;6.28;;;;;;;9.37;100.00;98983.22;5031031;28;20579;-86
2024/02/15 09:20:14;;;;;;;16.35;6.80;;;;;;;9.11;100.00;98938.50;5018088;28;20021;-87
2024/02/15 09:22:50;;;;;;;9.95;7.15;;;;;;;9.41;100.00;98973.69;5027873;28;20179;-87
2024/02/15 09:25:16;;;;;;;10.82;6.32;;;;;;;9.46;100.00;98965.78;5031348;28;20034;-87
2024/02/15 09:27:43;;;;;;;9.05;6.88;;;;;;;9.47;100.00;98964.75;5032320;28;20508;-86
2024/02/15 09:30:11;;;;;;;9.13;7.05;;;;;;;9.62;100.00;98957.84;5017082;28;20025;-87
2024/02/15 09:32:38;;;;;;;10.45;7.60;;;;;;;9.55;100.00;98941.19;5022916;28;20034;-87
2024/02/15 09:35:07;;;;;;;9.65;6.90;;;;;;;9.74;100.00;98976.47;5012329;28;20021;-87
2024/02/15 09:37:39;;;;;;;10.38;6.75;;;;;;;9.71;100.00;98968.94;5023880;28;20060;-87
2024/02/15 09:40:12;;;;;;;6.82;6.13;;;;;;;9.65;99.99;98943.25;5031510;28;20033;-86
2024/02/15 09:42:39;;;;;;;13.20;6.50;;;;;;;9.86;99.38;98963.88;5025959;28;20034;-86
2024/02/15 09:45:05;;;;;;;9.45;5.82;;;;;;;9.97;99.92;98960.31;5008378;28;20033;-86
2024/02/15 09:47:42;;;;;;;12.45;6.60;;;;;;;9.56;99.91;98921.50;5008293;28;20045;-86
2024/02/15 09:50:13;;;;;;;11.13;7.13;;;;;;;9.88;100.00;98980.41;5024227;28;20158;-86
2024/02/15 09:53:01;;;;;;;7.68;5.93;;;;;;;9.41;100.00;98893.78;5010257;28;20026;-86
2024/02/15 09:55:27;;;;;;;10.45;6.10;;;;;;;9.76;100.00;98939.72;5026104;28;20484;-86
2024/02/15 09:57:54;;;;;;;8.82;5.95;;;;;;;9.80;100.00;98946.97;5014123;28;20041;-86
2024/02/15 10:00:20;;;;;;;12.60;7.30;;;;;;;10.01;99.94;98958.78;5046670;28;20447;-86
2024/02/15 10:02:53;;;;;;;12.95;6.95;;;;;;;10.12;99.82;98973.13;5013342;28;20036;-87
2024/02/15 10:05:19;;;;;;;8.93;5.40;;;;;;;10.10;99.98;98968.00;5026978;28;20026;-86
2024/02/15 10:07:45;;;;;;;8.45;5.65;;;;;;;10.01;100.00;98945.44;5025549;28;20449;-86
2024/02/15 10:10:18;;;;;;;8.35;5.78;;;;;;;10.15;100.00;98970.78;5027629;28;20428;-86
2024/02/15 10:12:44;;;;;;;12.18;5.90;;;;;;;10.09;99.73;98966.38;5025032;28;20037;-86
2024/02/15 10:15:09;;;;;;;8.35;5.40;;;;;;;10.06;99.92;98950.06;5023315;28;20096;-86
2024/02/15 10:17:36;;;;;;;8.80;6.47;;;;;;;9.98;99.65;98953.91;5028722;28;20112;-86
2024/02/15 10:20:06;;;;;;;6.55;5.38;;;;;;;10.32;99.03;98979.59;5009415;28;20516;-87
2024/02/15 10:22:31;;;;;;;8.15;4.50;;;;;;;10.04;98.84;98941.50;5018411;28;20519;-87
2024/02/15 10:25:13;;;;;;;7.40;5.15;;;;;;;10.16;98.94;98956.38;5024252;28;20029;-86
2024/02/15 10:27:41;;;;;;;8.85;5.38;;;;;;;10.23;98.94;98954.38;5027224;28;20036;-86
2024/02/15 10:30:20;;;;;;;11.18;5.32;;;;;;;10.31;98.98;98951.28;5024727;28;20037;-87
2024/02/15 10:32:46;;;;;;;9.38;4.80;;;;;;;10.29;98.09;98933.91;5010644;28;20033;-87
2024/02/15 10:35:21;;;;;;;6.03;3.97;;;;;;;10.24;99.08;98945.31;5030280;28;20100;-87
2024/02/15 10:37:52;;;;;;;6.65;3.95;;;;;;;10.44;98.83;98942.94;5024344;28;20465;-87
2024/02/15 10:40:19;;;;;;;7.43;4.30;;;;;;;10.50;97.81;98950.00;5010970;28;20046;-87
2024/02/15 10:42:47;;;;;;;5.50;4.30;;;;;;;10.33;97.74;98951.84;4996192;28;20091;-86
2024/02/15 10:45:17;;;;;;;9.68;4.85;;;;;;;10.20;98.39;98930.06;4997651;28;20052;-87
2024/02/15 10:47:45;;;;;;;6.72;4.10;;;;;;;10.31;99.38;98961.16;5016703;28;20029;-87
2024/02/15 10:50:10;;;;;;;7.82;4.57;;;;;;;10.30;100.00;98978.22;5029013;28;20440;-87
2024/02/15 10:52:43;;;;;;;7.75;4.85;;;;;;;10.29;99.40;98977.41;5028213;28;20045;-86
2024/02/15 10:55:13;;;;;;;5.55;4.07;;;;;;;10.11;98.96;98907.50;5035835;28;20022;-86
2024/02/15 10:57:45;;;;;;;5.88;3.85;;;;;;;10.44;97.98;98960.84;5006764;28;20347;-86
2024/02/15 11:00:20;;;;;;;7.80;4.07;;;;;;;10.49;97.01;98967.03;5020864;28;20484;-86
2024/02/15 11:03:02;;;;;;;8.13;4.07;;;;;;;10.66;97.40;98976.91;5008655;28;20044;-87
2024/02/15 11:05:31;;;;;;;7.30;4.10;;;;;;;10.60;96.80;98967.19;5025521;28;20504;-86
2024/02/15 11:07:57;;;;;;;7.13;4.88;;;;;;;10.68;96.29;98970.22;5024508;28;20046;-87
2024/02/15 11:10:24;;;;;;;4.93;4.15;;;;;;;10.43;96.87;98957.34;5015694;28;20037;-87
2024/02/15 11:12:51;;;;;;;6.75;4.07;;;;;;;10.45;98.35;98949.09;5023523;28;20068;-87
2024/02/15 11:15:49;;;;;;;9.65;5.47;;;;;;;10.55;98.72;98967.91;5022693;28;20120;-87
2024/02/15 11:18:48;;;;;;;7.90;4.60;;;;;;;10.29;98.25;98968.59;5020524;28;20057;-87
2024/02/15 11:21:15;;;;;;;11.15;5.07;;;;;;;10.37;99.93;98966.34;5011520;28;20021;-87
2024/02/15 11:23:41;;;;;;;11.02;5.85;;;;;;;10.23;100.00;98940.22;5027277;28;20139;-87
2024/02/15 11:26:48;;;;;;;8.20;5.32;;;;;;;10.37;100.00;98963.66;5008618;28;20037;-87
2024/02/15 11:29:51;;;;;;;7.07;5.38;;;;;;;10.50;99.71;98957.19;5021625;28;20042;-87
2024/02/15 11:32:35;;;;;;;9.02;4.32;;;;;;;10.43;99.55;98944.00;5020994;28;20590;-87
2024/02/15 11:35:16;;;;;;;9.15;5.00;;;;;;;10.34;99.13;98920.66;5021849;28;20026;-87
2024/02/15 11:37:48;;;;;;;7.55;4.97;;;;;;;10.59;98.23;98944.22;5022734;28;20026;-87
2024/02/15 11:40:22;;;;;;;8.45;5.03;;;;;;;10.29;99.31;98920.56;5025957;28;20397;-86
2024/02/15 11:42:49;;;;;;;10.75;5.30;;;;;;;10.35;99.22;98930.28;5028901;28;20032;-87
2024/02/15 11:45:18;;;;;;;7.53;5.07;;;;;;;10.24;100.00;98915.97;5026952;28;20560;-87